createdAt,value
2019-05-21T00:41:15.977Z,99343.48
2019-05-21T00:43:57.042Z,99341.25
2019-05-21T00:46:24.731Z,99339.86
2019-05-21T00:48:52.280Z,99342.28
2019-05-21T00:51:20.010Z,99345.80
2019-05-21T00:53:47.725Z,99350.37
2019-05-21T00:56:16.743Z,99348.25
2019-05-21T00:58:44.238Z,99348.31
2019-05-21T01:01:12.095Z,99349.34
2019-05-21T01:03:43.136Z,99354.69
2019-05-21T01:06:08.981Z,99356.30
2019-05-21T01:08:36.544Z,99354.47
2019-05-21T01:11:04.345Z,99358.75
2019-05-21T01:13:31.948Z,99357.73
2019-05-21T01:15:59.714Z,99362.27
2019-05-21T01:18:27.298Z,99358.39
2019-05-21T01:20:55.254Z,99365.09
2019-05-21T01:23:22.814Z,99369.63
2019-05-21T01:25:50.257Z,99365.45
2019-05-21T01:28:17.906Z,99368.41
2019-05-21T01:30:45.457Z,99365.27
2019-05-21T01:33:12.858Z,99362.11
2019-05-21T01:35:40.306Z,99360.28
2019-05-21T01:38:07.804Z,99362.41
2019-05-21T01:40:35.236Z,99366.58
2019-05-21T01:43:03.741Z,99366.88
2019-05-21T01:45:31.270Z,99365.34
2019-05-21T01:47:59.080Z,99361.67
2019-05-21T01:50:26.693Z,99365.92
2019-05-21T01:52:54.127Z,99363.06
2019-05-21T01:55:27.672Z,99360.94
2019-05-21T01:58:07.959Z,99359.33
2019-05-21T03:50:49.187Z,99370.59
2019-05-21T03:53:16.966Z,99375.06
2019-05-21T03:55:44.399Z,99376.46
2019-05-21T03:58:11.870Z,99375.77
2019-05-21T04:00:39.394Z,99382.22
2019-05-21T04:03:06.913Z,99389.42
2019-05-21T04:05:34.416Z,99391.04
2019-05-21T04:08:02.612Z,99391.63
2019-05-21T04:10:30.266Z,99390.64
2019-05-21T04:13:07.427Z,99390.42
2019-05-21T04:15:43.852Z,99395.69
2019-05-21T04:18:16.386Z,99391.23
2019-05-21T04:20:43.860Z,99399.34
2019-05-21T04:23:11.513Z,99390.13
2019-05-21T04:25:39.095Z,99386.47
2019-05-21T04:28:06.740Z,99388.41
2019-05-21T04:30:34.377Z,99390.23
2019-05-21T04:33:01.857Z,99387.38
2019-05-21T04:35:29.642Z,99391.63
2019-05-21T04:37:59.638Z,99395.80
2019-05-21T04:40:27.698Z,99387.89
2019-05-21T04:42:55.145Z,99395.29
2019-05-21T04:45:22.661Z,99399.86
2019-05-21T04:47:50.569Z,99400.78
2019-05-21T04:50:18.216Z,99397.42
2019-05-21T04:52:45.951Z,99395.38
2019-05-21T04:55:13.755Z,99397.60
2019-05-21T04:57:41.213Z,99399.52
2019-05-21T05:00:09.436Z,99400.61
2019-05-21T05:02:37.282Z,99394.83
2019-05-21T05:05:05.371Z,99395.92
2019-05-21T05:07:32.820Z,99393.91
2019-05-21T05:10:00.595Z,99402.92
2019-05-21T05:12:28.132Z,99408.78
2019-05-21T05:14:55.682Z,99404.83
2019-05-21T05:17:23.412Z,99405.96
2019-05-21T05:19:51.240Z,99404.31
2019-05-21T05:22:18.941Z,99406.87
2019-05-21T05:24:46.516Z,99408.70
2019-05-21T05:27:15.283Z,99414.20
2019-05-21T05:29:42.775Z,99419.66
2019-05-21T05:32:10.153Z,99423.61
2019-05-21T05:34:37.715Z,99427.09
2019-05-21T05:37:05.320Z,99429.21
2019-05-21T05:39:33.200Z,99443.50
2019-05-21T05:42:00.760Z,99440.86
2019-05-21T05:44:28.534Z,99448.77
2019-05-21T05:46:56.261Z,99456.68
2019-05-21T05:49:29.990Z,99463.56
2019-05-21T05:51:57.884Z,99465.18
2019-05-21T05:54:25.617Z,99459.39
2019-05-21T05:56:53.229Z,99463.65
2019-05-21T05:59:21.806Z,99466.28
2019-05-21T06:01:49.348Z,99470.67
2019-05-21T06:04:16.886Z,99465.40
2019-05-21T06:06:44.370Z,99468.95
2019-05-21T06:09:11.794Z,99472.61
2019-05-21T06:11:39.387Z,99480.22
2019-05-21T06:14:06.935Z,99475.45
2019-05-21T06:16:34.551Z,99479.62
2019-05-21T06:19:02.167Z,99483.28
2019-05-21T06:21:29.706Z,99486.91
2019-05-21T06:23:58.132Z,99483.98
2019-05-21T06:26:25.806Z,99480.75
2019-05-21T06:28:53.989Z,99479.65
2019-05-21T06:31:21.510Z,99484.80
2019-05-21T06:33:49.131Z,99488.17
2019-05-21T06:36:16.562Z,99494.55
2019-05-21T06:38:44.455Z,99488.86
2019-05-21T06:41:12.052Z,99491.89
2019-05-21T06:43:39.688Z,99487.56
2019-05-21T06:46:07.259Z,99496.19
2019-05-21T06:48:34.834Z,99498.71
2019-05-21T06:51:02.423Z,99500.97
2019-05-21T06:53:33.378Z,99505.73
2019-05-21T06:56:08.240Z,99508.88
2019-05-21T06:58:35.738Z,99511.69
2019-05-21T07:01:28.742Z,99509.77
2019-05-21T07:03:52.848Z,99509.06
2019-05-21T07:06:30.956Z,99510.00
2019-05-21T07:08:59.931Z,99509.58
2019-05-21T07:11:27.834Z,99514.25
2019-05-21T07:13:57.284Z,99526.62
2019-05-21T07:16:24.928Z,99530.78
2019-05-21T07:18:55.549Z,99524.20
2019-05-21T07:21:23.496Z,99521.44
2019-05-21T07:23:51.152Z,99520.34
2019-05-21T07:26:18.870Z,99514.68
2019-05-21T07:28:46.562Z,99519.44
2019-05-21T10:54:41.647Z,99685.28
2019-05-21T10:57:09.789Z,99697.53
2019-05-21T10:59:37.770Z,99698.16
2019-05-21T11:02:19.184Z,99697.73
2019-05-21T11:05:18.718Z,99701.91
2019-05-21T11:07:46.978Z,99697.23
2019-05-21T11:10:15.852Z,99709.60
2019-05-21T11:12:44.121Z,99710.32
2019-05-21T11:15:12.944Z,99711.01
2019-05-21T11:17:59.000Z,99715.68
2019-05-21T11:20:13.398Z,99716.79
2019-05-21T11:22:41.771Z,99723.69
2019-05-21T11:25:10.624Z,99721.97
2019-05-21T11:27:39.577Z,99718.61
2019-05-21T11:30:08.598Z,99719.63
2019-05-21T11:32:37.774Z,99729.28
2019-05-21T11:35:07.768Z,99731.50
2019-05-21T11:37:36.357Z,99736.47
2019-05-21T11:40:08.352Z,99733.23
2019-05-21T11:42:35.384Z,99739.61
2019-05-21T11:45:04.114Z,99736.46
2019-05-21T11:47:32.106Z,99738.59
2019-05-21T11:50:01.917Z,99744.47
2019-05-21T11:52:29.958Z,99746.89
2019-05-21T11:54:58.030Z,99754.11
2019-05-21T11:57:26.100Z,99754.50
2019-05-21T11:59:54.073Z,99753.48
2019-05-21T12:02:22.270Z,99751.27
2019-05-21T12:04:50.281Z,99752.28
2019-05-21T12:07:18.341Z,99750.33
2019-05-21T12:09:47.061Z,99751.77
2019-05-21T12:12:15.116Z,99748.41
2019-05-21T12:14:43.397Z,99757.94
2019-05-21T12:17:11.431Z,99756.62
2019-05-21T12:19:39.522Z,99761.89
2019-05-21T12:22:07.656Z,99762.52
2019-05-21T12:24:35.667Z,99766.36
2019-05-21T12:27:03.929Z,99767.28
2019-05-21T12:29:34.260Z,99762.38
2019-05-21T12:32:03.036Z,99765.75
2019-05-21T12:34:31.042Z,99764.13
2019-05-21T12:36:59.111Z,99760.78
2019-05-21T12:39:27.154Z,99767.59
2019-05-21T12:41:55.638Z,99765.77
2019-05-21T12:44:23.960Z,99767.90
2019-05-21T12:46:52.028Z,99774.50
2019-05-21T12:49:20.048Z,99774.08
2019-05-21T12:51:48.083Z,99772.95
2019-05-21T12:54:16.120Z,99779.45
2019-05-21T12:56:44.225Z,99785.34
2019-05-21T12:59:12.303Z,99787.87
2019-05-21T13:01:40.515Z,99791.11
2019-05-21T13:04:10.714Z,99787.75
2019-05-21T13:06:39.091Z,99791.33
2019-05-21T13:09:08.452Z,99793.55
2019-05-21T13:11:38.108Z,99792.15
2019-05-21T13:14:06.295Z,99793.47
2019-05-21T13:16:34.260Z,99793.17
2019-05-21T13:19:03.266Z,99795.19
2019-05-21T13:21:31.286Z,99798.23
2019-05-21T13:23:59.422Z,99803.90
2019-05-21T13:26:28.843Z,99804.31
2019-05-21T13:28:57.208Z,99805.05
2019-05-21T13:31:25.527Z,99806.06
2019-05-21T13:33:53.966Z,99808.28
2019-05-21T13:36:22.393Z,99805.94
2019-05-21T13:38:50.904Z,99806.05
2019-05-21T13:41:19.279Z,99811.23
2019-05-21T13:43:47.353Z,99807.39
2019-05-21T13:46:15.337Z,99807.69
2019-05-21T13:48:46.923Z,99807.98
2019-05-21T13:51:15.595Z,99812.03
2019-05-21T13:53:45.105Z,99816.11
2019-05-21T13:56:14.707Z,99822.59
2019-05-21T13:58:43.177Z,99824.94
2019-05-21T14:01:15.729Z,99819.36
2019-05-21T14:03:43.176Z,99825.45
2019-05-21T14:06:11.422Z,99828.98
2019-05-21T14:08:39.957Z,99827.66
2019-05-21T14:11:08.091Z,99831.44
2019-05-21T14:13:36.990Z,99832.34
2019-05-21T14:16:05.106Z,99835.57
2019-05-21T14:18:33.399Z,99834.25
2019-05-21T14:21:01.523Z,99835.48
2019-05-21T14:23:29.593Z,99835.08
2019-05-21T14:25:57.639Z,99838.05
2019-05-21T14:28:25.980Z,99836.50
2019-05-21T14:30:54.014Z,99842.09
2019-05-21T14:33:22.245Z,99842.60
2019-05-21T14:35:50.252Z,99841.80
2019-05-21T14:38:18.529Z,99852.56
2019-05-21T14:40:47.732Z,99848.09
2019-05-21T14:43:15.784Z,99853.48
2019-05-21T14:45:43.808Z,99860.80
2019-05-21T14:48:11.939Z,99852.97
2019-05-21T14:50:39.975Z,99857.64
2019-05-21T14:53:08.039Z,99858.53
2019-05-21T14:55:36.072Z,99857.41
2019-05-21T14:58:04.495Z,99862.90
2019-05-21T15:00:34.956Z,99856.16
2019-05-21T15:03:03.611Z,99863.78
2019-05-21T15:05:32.792Z,99859.72
2019-05-21T15:08:02.584Z,99862.44
2019-05-21T15:10:46.834Z,99860.42
2019-05-21T15:13:05.499Z,99863.95
2019-05-21T15:15:31.146Z,99863.23
2019-05-21T15:17:59.425Z,99868.52
2019-05-21T15:20:37.773Z,99861.82
2019-05-21T15:23:05.901Z,99863.95
2019-05-21T15:25:33.961Z,99862.20
2019-05-21T15:28:04.838Z,99866.50
2019-05-21T15:30:33.024Z,99871.34
2019-05-21T15:33:01.122Z,99870.84
2019-05-21T15:35:29.690Z,99870.03
2019-05-21T15:37:58.178Z,99868.48
2019-05-21T15:40:26.325Z,99869.41
2019-05-21T15:42:54.416Z,99870.52
2019-05-21T15:45:22.747Z,99875.38
2019-05-21T15:47:50.839Z,99874.05
2019-05-21T15:50:18.950Z,99871.22
2019-05-21T15:52:46.923Z,99869.25
2019-05-21T15:55:15.143Z,99871.38
2019-05-21T15:57:43.236Z,99868.85
2019-05-21T16:00:12.065Z,99871.66
2019-05-21T16:02:40.064Z,99873.68
2019-05-21T16:05:08.363Z,99879.77
2019-05-21T16:07:36.435Z,99873.65
2019-05-21T16:10:06.074Z,99881.34
2019-05-21T16:12:34.248Z,99871.48
2019-05-21T16:15:28.713Z,99879.83
2019-05-21T16:18:04.811Z,99872.19
2019-05-21T16:20:33.028Z,99881.00
2019-05-21T16:23:01.040Z,99886.18
2019-05-21T16:25:29.194Z,99880.05
2019-05-21T16:27:57.228Z,99887.14
2019-05-21T16:30:25.333Z,99887.95
2019-05-21T16:32:53.397Z,99883.16
2019-05-21T16:35:21.863Z,99891.18
2019-05-21T16:37:50.199Z,99894.34
2019-05-21T16:40:18.550Z,99892.06
2019-05-21T16:42:46.846Z,99896.44
2019-05-21T16:45:15.253Z,99904.45
2019-05-21T16:47:46.318Z,99895.88
2019-05-21T16:50:13.987Z,99894.44
2019-05-21T16:52:42.220Z,99890.47
2019-05-21T16:55:10.496Z,99895.32
2019-05-21T16:57:38.767Z,99897.23
2019-05-21T17:00:09.014Z,99897.23
2019-05-21T17:02:36.973Z,99893.55
2019-05-21T17:05:05.461Z,99901.49
2019-05-21T17:07:33.447Z,99901.49
2019-05-21T17:10:01.597Z,99906.30
2019-05-21T17:12:30.959Z,99906.09
2019-05-21T17:14:59.165Z,99911.16
2019-05-21T17:17:27.449Z,99918.00
2019-05-21T17:19:55.512Z,99919.02
2019-05-21T17:22:23.995Z,99921.05
2019-05-21T17:24:52.124Z,99914.88
2019-05-21T17:27:20.185Z,99922.52
2019-05-21T17:29:48.484Z,99921.20
2019-05-21T17:32:16.647Z,99920.39
2019-05-21T17:34:44.706Z,99925.06
2019-05-21T17:37:12.889Z,99916.02
2019-05-21T17:39:40.947Z,99923.67
2019-05-21T17:42:15.415Z,99920.44
2019-05-21T17:44:39.709Z,99926.13
2019-05-21T17:47:07.943Z,99932.16
2019-05-21T17:49:35.955Z,99935.54
2019-05-21T17:52:05.088Z,99933.59
2019-05-21T17:54:34.081Z,99933.30
2019-05-21T17:57:02.405Z,99937.48
2019-05-21T17:59:30.395Z,99942.48
2019-05-21T18:02:00.757Z,99938.92
2019-05-21T18:04:30.156Z,99944.65
2019-05-21T18:06:59.224Z,99943.25
2019-05-21T18:09:28.546Z,99953.20
2019-05-21T18:11:57.447Z,99953.02
2019-05-21T18:14:25.895Z,99959.55
2019-05-21T18:16:54.353Z,99957.75
2019-05-21T18:19:23.829Z,99964.76
2019-05-21T18:21:53.524Z,99966.48
2019-05-21T18:24:21.837Z,99965.08
2019-05-21T18:26:50.422Z,99973.23
2019-05-21T18:29:18.535Z,99971.80
2019-05-21T18:31:47.719Z,99976.49
2019-05-21T18:34:16.510Z,99979.56
2019-05-21T18:36:44.600Z,99986.88
2019-05-21T18:39:12.749Z,99990.97
2019-05-21T18:41:40.820Z,99994.52
2019-05-21T18:44:09.083Z,99993.33
2019-05-21T18:46:37.051Z,99996.97
2019-05-21T18:49:05.137Z,100003.19
2019-05-21T18:51:33.093Z,100005.42
2019-05-21T18:54:01.704Z,100009.59
2019-05-21T18:56:31.487Z,100010.32
2019-05-21T18:59:00.103Z,100008.37
2019-05-21T19:01:28.261Z,100013.06
2019-05-21T19:03:56.732Z,100013.27
2019-05-21T19:06:24.849Z,100018.77
2019-05-21T19:08:53.212Z,100017.33
2019-05-21T19:11:22.781Z,100014.59
2019-05-21T19:13:51.102Z,100024.56
2019-05-21T19:16:19.127Z,100032.38
2019-05-21T19:18:47.211Z,100036.04
2019-05-21T19:21:15.260Z,100039.19
2019-05-21T19:23:43.546Z,100036.25
2019-05-21T19:26:11.428Z,100043.87
2019-05-21T19:28:39.663Z,100050.19
2019-05-21T19:31:07.918Z,100048.74
2019-05-21T19:33:35.987Z,100048.14
2019-05-21T19:36:05.224Z,100053.63
2019-05-21T19:38:36.969Z,100056.66
2019-05-21T19:41:03.417Z,100061.05
2019-05-21T19:43:31.571Z,100057.80
2019-05-21T19:45:59.933Z,100066.20
2019-05-21T19:48:28.319Z,100069.05
2019-05-21T19:51:00.085Z,100071.09
2019-05-21T19:53:27.013Z,100077.91
2019-05-21T19:55:55.514Z,100076.67
2019-05-21T19:58:25.284Z,100078.07
2019-05-21T20:00:54.207Z,100078.99
2019-05-21T20:03:22.658Z,100083.38
2019-05-21T20:05:51.220Z,100087.20
2019-05-21T20:08:19.199Z,100094.49
2019-05-21T20:10:48.249Z,100099.27
2019-05-21T20:13:16.337Z,100096.62
2019-05-21T20:15:45.187Z,100102.75
2019-05-21T20:18:15.383Z,100103.73
2019-05-21T20:20:44.180Z,100107.91
2019-05-21T20:23:13.116Z,100112.38
2019-05-21T20:25:55.267Z,100110.41
2019-05-21T20:28:11.391Z,100110.92
2019-05-21T20:30:44.651Z,100112.55
2019-05-21T20:33:13.936Z,100111.64
2019-05-21T20:35:42.094Z,100113.98
2019-05-21T20:38:11.589Z,100116.11
2019-05-21T20:40:40.220Z,100109.20
2019-05-21T20:43:11.465Z,100116.11
2019-05-21T20:45:42.885Z,100117.94
2019-05-21T20:48:13.098Z,100115.30
2019-05-21T20:50:41.862Z,100116.31
2019-05-21T20:53:10.198Z,100117.30
2019-05-21T20:55:38.456Z,100119.94
2019-05-21T20:58:10.874Z,100121.46
2019-05-21T21:00:42.703Z,100122.38
2019-05-21T21:03:11.525Z,100120.12
2019-05-21T21:05:40.839Z,100125.30
2019-05-21T21:08:10.052Z,100123.04
2019-05-21T21:10:38.344Z,100129.33
2019-05-21T21:13:08.157Z,100126.39
2019-05-21T21:15:36.775Z,100127.41
2019-05-21T21:18:07.001Z,100125.27
2019-05-21T21:20:35.293Z,100128.63
2019-05-21T21:23:03.431Z,100128.29
2019-05-21T21:25:31.869Z,100131.95
2019-05-21T21:28:00.184Z,100131.53
2019-05-21T21:30:28.541Z,100131.53
2019-05-21T21:32:57.173Z,100129.10
2019-05-21T21:35:25.299Z,100129.58
2019-05-21T21:37:53.619Z,100129.58
2019-05-21T21:40:23.454Z,100138.00
2019-05-21T21:42:51.950Z,100138.00
2019-05-21T21:45:21.303Z,100134.55
2019-05-21T21:47:49.498Z,100135.36
2019-05-21T21:50:18.608Z,100136.38
2019-05-21T21:52:46.925Z,100135.06
2019-05-21T21:55:15.764Z,100136.38
2019-05-21T21:57:43.882Z,100137.09
2019-05-21T22:01:23.474Z,100137.80
2019-05-21T22:03:52.451Z,100132.39
2019-05-21T22:06:21.798Z,100132.59
2019-05-21T22:08:50.019Z,100128.33
2019-05-21T22:11:19.514Z,100128.63
2019-05-21T22:13:48.215Z,100134.52
2019-05-21T22:16:18.213Z,100131.87
2019-05-21T22:18:46.618Z,100136.34
2019-05-21T22:21:15.533Z,100137.97
2019-05-21T22:23:43.918Z,100141.12
2019-05-21T22:26:12.711Z,100141.12
2019-05-21T22:28:40.799Z,100140.20
2019-05-21T22:31:08.916Z,100136.75
2019-05-21T22:33:37.137Z,100139.08
2019-05-21T22:36:05.162Z,100137.63
2019-05-21T22:38:36.156Z,100138.34
2019-05-21T22:41:04.178Z,100143.01
2019-05-21T22:43:32.480Z,100143.69
2019-05-21T22:46:00.531Z,100139.12
2019-05-21T22:48:28.660Z,100145.91
2019-05-21T22:50:57.163Z,100143.14
2019-05-21T22:53:26.601Z,100147.50
2019-05-21T22:55:54.736Z,100138.16
2019-05-21T22:58:22.895Z,100146.58
2019-05-21T23:00:52.627Z,100140.66
2019-05-21T23:03:21.045Z,100143.30
2019-05-21T23:05:49.346Z,100144.31
2019-05-21T23:08:18.915Z,100142.18
2019-05-21T23:10:47.105Z,100139.74
2019-05-21T23:13:15.134Z,100140.25
2019-05-21T23:15:44.584Z,100137.61
2019-05-21T23:18:24.933Z,100142.89
2019-05-21T23:21:14.355Z,100139.61
2019-05-21T23:23:44.010Z,100145.89
2019-05-21T23:26:13.148Z,100142.14
2019-05-21T23:28:41.633Z,100143.45
2019-05-21T23:31:12.137Z,100139.50
2019-05-21T23:33:41.565Z,100135.54
2019-05-21T23:36:10.285Z,100134.22
2019-05-21T23:38:38.368Z,100137.16
2019-05-21T23:41:08.181Z,100136.16
2019-05-21T23:43:36.559Z,100134.33
2019-05-21T23:46:04.952Z,100143.05
2019-05-21T23:48:34.847Z,100140.25
2019-05-21T23:51:03.278Z,100136.80
2019-05-21T23:53:32.162Z,100130.71
2019-05-21T23:56:00.735Z,100129.70
2019-05-21T23:58:28.969Z,100128.88
